Time;durP1;ratioP1;P1;durP2;ratioP2;P2;SDS_P1;SDS_P2;PMS_P1;PMS_P2;Temp;Humidity;BMP_temperature;BMP_pressure;BME280_temperature;BME280_humidity;BME280_pressure;Samples;Min_cycle;Max_cycle;Signal;HPM_P1;HPM_P2
2024/01/07 00:00:03;;;;;;;26.92;16.92;;;;;;;-142.57;100.00;56848.84;4984895;28;20645;-81
2024/01/07 00:02:31;;;;;;;26.42;16.50;;;;;;;-142.57;100.00;56865.03;4988742;28;20493;-81
2024/01/07 00:04:57;;;;;;;25.52;16.42;;;;;;;-142.57;100.00;56869.06;4985881;28;20040;-79
2024/01/07 00:07:23;;;;;;;24.25;15.63;;;;;;;-142.57;100.00;56917.56;4984185;28;20044;-80
2024/01/07 00:09:49;;;;;;;26.48;16.88;;;;;;;-142.57;100.00;56909.50;4971420;28;20089;-81
2024/01/07 00:12:16;;;;;;;22.35;14.75;;;;;;;-142.57;100.00;56962.03;5019770;28;20032;-82
2024/01/07 00:14:42;;;;;;;25.92;15.50;;;;;;;-142.57;100.00;56958.00;5080930;28;20043;-79
2024/01/07 00:17:07;;;;;;;25.13;15.35;;;;;;;-142.57;100.00;56962.03;5100036;28;20033;-81
2024/01/07 00:19:35;;;;;;;24.08;15.20;;;;;;;-142.57;100.00;56994.38;5089847;28;20043;-80
2024/01/07 00:22:01;;;;;;;25.90;15.77;;;;;;;-142.57;100.00;56949.91;5087673;28;20443;-80
2024/01/07 00:24:28;;;;;;;22.42;14.52;;;;;;;-142.57;100.00;56901.41;5078667;28;20032;-81
2024/01/07 00:26:55;;;;;;;23.13;14.75;;;;;;;-142.57;100.00;56919.59;5057832;28;20389;-80
2024/01/07 00:29:20;;;;;;;21.48;13.20;;;;;;;-142.57;100.00;56893.31;5074703;28;20039;-83
2024/01/07 00:31:46;;;;;;;20.08;12.88;;;;;;;-142.57;100.00;56913.53;5073449;28;20206;-82
2024/01/07 00:34:12;;;;;;;20.55;13.35;;;;;;;-142.57;100.00;56901.41;5027587;28;21636;-81
2024/01/07 00:36:38;;;;;;;21.00;13.75;;;;;;;-142.57;100.00;56867.03;5076887;28;20027;-81
2024/01/07 00:39:04;;;;;;;19.42;12.35;;;;;;;-142.57;100.00;56873.09;5066886;28;20431;-81
2024/01/07 00:41:33;;;;;;;19.58;11.98;;;;;;;-142.57;100.00;56893.31;5072919;28;20031;-82
2024/01/07 00:43:58;;;;;;;16.17;10.45;;;;;;;-142.57;100.00;56832.69;5052629;28;20124;-80
2024/01/07 00:46:24;;;;;;;16.90;9.95;;;;;;;-142.57;100.00;56828.66;5000724;28;20038;-78
2024/01/07 00:48:49;;;;;;;20.35;10.32;;;;;;;-142.57;100.00;56881.19;4964168;28;20039;-81
2024/01/07 00:51:15;;;;;;;17.23;10.70;;;;;;;-142.57;100.00;56812.47;4980703;28;20060;-79
2024/01/07 00:53:40;;;;;;;16.02;10.07;;;;;;;-142.57;100.00;56850.88;4965967;28;20040;-79
2024/01/07 00:56:07;;;;;;;14.40;9.50;;;;;;;-142.57;100.00;56858.97;4964194;28;20044;-81
2024/01/07 00:58:33;;;;;;;14.38;7.72;;;;;;;-142.57;100.00;56860.97;4978982;28;20047;-80
2024/01/07 01:00:59;;;;;;;11.32;6.97;;;;;;;-142.57;100.00;56842.78;4963788;28;20040;-80
2024/01/07 01:03:26;;;;;;;11.27;7.05;;;;;;;-142.57;100.00;56860.97;4957644;28;21650;-78
2024/01/07 01:05:52;;;;;;;11.00;7.05;;;;;;;-142.57;100.00;56856.94;4967211;28;20040;-82
2024/01/07 01:08:17;;;;;;;12.38;7.25;;;;;;;-142.57;100.00;56860.97;4965228;28;20175;-80
2024/01/07 01:10:43;;;;;;;10.93;7.20;;;;;;;-142.57;100.00;56867.03;4976471;28;20041;-81
2024/01/07 01:13:09;;;;;;;10.65;6.82;;;;;;;-142.57;100.00;56891.28;4976486;28;20044;-80
2024/01/07 01:15:34;;;;;;;10.65;6.53;;;;;;;-142.57;100.00;56885.22;4966076;28;20032;-80
2024/01/07 01:18:00;;;;;;;10.88;6.68;;;;;;;-142.57;100.00;56897.38;4963277;28;20040;-80
2024/01/07 01:20:26;;;;;;;8.20;5.03;;;;;;;-142.57;100.00;56869.06;4975781;28;20056;-81
2024/01/07 01:22:51;;;;;;;10.27;5.43;;;;;;;-142.57;100.00;56836.72;4978114;28;20033;-81
2024/01/07 01:25:17;;;;;;;9.00;6.72;;;;;;;-142.57;100.00;56858.97;4977885;28;20036;-79
2024/01/07 01:27:42;;;;;;;7.40;5.22;;;;;;;-142.57;100.00;56869.06;4977451;28;22612;-79
2024/01/07 01:30:08;;;;;;;7.13;4.10;;;;;;;-142.57;100.00;56832.69;4963822;28;20137;-80
2024/01/07 01:32:34;;;;;;;5.80;3.55;;;;;;;-142.57;100.00;56881.19;4977944;28;20041;-80
2024/01/07 01:34:59;;;;;;;4.97;3.47;;;;;;;-142.57;100.00;56852.91;4980749;28;20043;-80
2024/01/07 01:37:28;;;;;;;5.07;3.45;;;;;;;-142.57;100.00;56863.00;4965438;28;20060;-80
2024/01/07 01:39:54;;;;;;;5.50;3.60;;;;;;;-142.57;100.00;56885.22;4966154;28;20323;-79
2024/01/07 01:42:19;;;;;;;5.35;3.70;;;;;;;-142.57;100.00;56869.06;4977341;28;20128;-79
2024/01/07 01:44:52;;;;;;;6.82;3.75;;;;;;;-142.57;100.00;56830.66;4950541;28;20040;-79
2024/01/07 01:47:17;;;;;;;5.25;3.53;;;;;;;-142.57;100.00;56824.59;4991426;28;20107;-80
2024/01/07 01:49:45;;;;;;;5.05;2.70;;;;;;;-142.57;100.00;56858.97;5061728;28;20089;-81
2024/01/07 01:52:12;;;;;;;3.65;2.90;;;;;;;-142.57;100.00;56842.78;5059017;28;20118;-80
2024/01/07 01:54:38;;;;;;;4.15;2.58;;;;;;;-142.57;100.00;56836.72;5072757;28;20538;-80
2024/01/07 01:57:05;;;;;;;4.32;2.63;;;;;;;-142.57;100.00;56832.69;5019919;28;20036;-78
2024/01/07 01:59:33;;;;;;;4.63;2.60;;;;;;;-142.57;100.00;56824.59;5008428;28;20039;-82
2024/01/07 02:02:00;;;;;;;3.47;2.30;;;;;;;-142.57;100.00;56826.63;5046195;28;20117;-80
2024/01/07 02:04:26;;;;;;;3.50;2.20;;;;;;;-142.57;100.00;56856.94;5068912;28;20050;-79
2024/01/07 02:06:51;;;;;;;3.38;2.33;;;;;;;-142.57;100.00;56852.91;5075199;28;20032;-80
2024/01/07 02:09:17;;;;;;;3.97;2.60;;;;;;;-142.57;100.00;56808.44;5064324;28;20037;-79
2024/01/07 02:11:42;;;;;;;2.90;2.35;;;;;;;-142.57;100.00;56824.59;5058821;28;20035;-82
2024/01/07 02:14:08;;;;;;;4.85;2.22;;;;;;;-142.57;100.00;56873.09;5070619;28;20029;-80
2024/01/07 02:16:33;;;;;;;3.30;2.10;;;;;;;-142.57;100.00;56838.75;5078118;28;20131;-80
2024/01/07 02:18:59;;;;;;;3.15;2.03;;;;;;;-142.57;100.00;56881.19;5037477;28;21451;-77
2024/01/07 02:21:24;;;;;;;4.68;2.35;;;;;;;-142.57;100.00;56854.91;5072023;28;20602;-83
2024/01/07 02:23:50;;;;;;;2.97;1.75;;;;;;;-142.57;100.00;56772.06;5071131;28;20035;-81
2024/01/07 02:26:15;;;;;;;2.03;1.45;;;;;;;-142.57;100.00;56784.19;5088069;28;20046;-78
2024/01/07 02:28:41;;;;;;;2.28;1.52;;;;;;;-142.57;100.00;56768.00;5096265;28;20043;-82
2024/01/07 02:31:06;;;;;;;2.25;1.42;;;;;;;-142.57;100.00;56731.63;5096577;28;20088;-81
2024/01/07 02:33:32;;;;;;;1.73;1.40;;;;;;;-142.57;100.00;56723.53;5080216;28;20036;-81
2024/01/07 02:35:58;;;;;;;2.88;1.40;;;;;;;-142.57;100.00;56731.63;5077254;28;20020;-80
2024/01/07 02:38:23;;;;;;;2.70;1.60;;;;;;;-142.57;100.00;56727.59;5067474;28;20510;-81
2024/01/07 02:40:49;;;;;;;3.40;2.00;;;;;;;-142.57;100.00;56745.78;5069307;28;20025;-82
2024/01/07 02:43:14;;;;;;;2.67;2.03;;;;;;;-142.57;100.00;56699.28;5077426;28;20081;-80
2024/01/07 02:45:40;;;;;;;2.78;1.80;;;;;;;-142.57;100.00;56723.53;5062413;28;20045;-78
2024/01/07 02:48:05;;;;;;;3.25;1.98;;;;;;;-142.57;100.00;56683.13;4980113;28;21430;-80
2024/01/07 02:50:32;;;;;;;4.70;2.33;;;;;;;-142.57;100.00;56685.16;4980474;28;20037;-79
2024/01/07 02:52:58;;;;;;;3.08;2.22;;;;;;;-142.57;100.00;56683.13;4982092;28;20111;-80
2024/01/07 02:55:23;;;;;;;4.28;2.45;;;;;;;-142.57;100.00;56634.63;4980179;28;20036;-78
2024/01/07 02:57:49;;;;;;;3.80;2.75;;;;;;;-142.57;100.00;56660.91;5045858;28;20036;-79
2024/01/07 03:00:14;;;;;;;4.28;3.00;;;;;;;-142.57;100.00;56675.03;5091053;28;20033;-79
2024/01/07 03:02:40;;;;;;;4.40;2.97;;;;;;;-142.57;100.00;56671.00;5076027;28;20036;-80
2024/01/07 03:05:06;;;;;;;3.35;2.70;;;;;;;-142.57;100.00;56671.00;5065918;28;20024;-79
2024/01/07 03:07:32;;;;;;;4.10;2.92;;;;;;;-142.57;100.00;56666.97;5076680;28;20477;-79
2024/01/07 03:09:57;;;;;;;4.85;3.47;;;;;;;-142.57;100.00;56656.84;5083071;28;20032;-81
2024/01/07 03:12:23;;;;;;;5.72;3.65;;;;;;;-142.57;100.00;56675.03;5064952;28;20032;-78
2024/01/07 03:14:48;;;;;;;5.68;4.07;;;;;;;-142.57;100.00;56658.88;5062228;28;20020;-81
2024/01/07 03:17:16;;;;;;;7.28;4.72;;;;;;;-142.57;100.00;56666.97;5067241;28;20409;-80
2024/01/07 03:19:42;;;;;;;6.43;4.70;;;;;;;-142.57;100.00;56679.09;5069857;28;20182;-82
2024/01/07 03:22:08;;;;;;;10.07;5.20;;;;;;;-142.57;100.00;56638.66;5069761;28;20119;-83
2024/01/07 03:24:33;;;;;;;8.02;5.78;;;;;;;-142.57;100.00;56654.84;5068982;28;20110;-80
2024/01/07 03:26:59;;;;;;;8.65;6.05;;;;;;;-142.57;100.00;56618.44;5070064;28;20036;-80
2024/01/07 03:29:24;;;;;;;9.10;5.90;;;;;;;-142.57;100.00;56588.13;5069185;28;20039;-80
2024/01/07 03:31:53;;;;;;;9.90;6.85;;;;;;;-142.57;100.00;56594.19;5070728;28;20037;-80
2024/01/07 03:34:19;;;;;;;12.00;6.50;;;;;;;-142.57;100.00;56634.63;5051695;28;20027;-79
2024/01/07 03:36:45;;;;;;;9.02;6.40;;;;;;;-142.57;100.00;56612.38;5042887;28;20028;-80
2024/01/07 03:39:11;;;;;;;8.50;6.72;;;;;;;-142.57;100.00;56604.31;5077789;28;20029;-79
2024/01/07 03:41:36;;;;;;;9.57;6.88;;;;;;;-142.57;100.00;56598.25;5081071;28;20036;-79
2024/01/07 03:44:02;;;;;;;9.07;6.63;;;;;;;-142.57;100.00;56578.03;5064155;28;20397;-80
2024/01/07 03:46:27;;;;;;;8.80;5.80;;;;;;;-142.57;100.00;56527.50;5062388;28;21563;-78
2024/01/07 03:48:53;;;;;;;7.35;5.35;;;;;;;-142.57;100.00;56517.41;4986357;28;20047;-79
2024/01/07 03:51:18;;;;;;;6.93;5.07;;;;;;;-142.57;100.00;56539.63;4986969;28;21462;-79
2024/01/07 03:53:44;;;;;;;6.63;5.00;;;;;;;-142.57;100.00;56521.44;4985185;28;20037;-78
2024/01/07 03:56:09;;;;;;;5.68;3.95;;;;;;;-142.57;100.00;56509.31;5013941;28;20036;-79
2024/01/07 03:58:35;;;;;;;5.75;4.10;;;;;;;-142.57;100.00;56525.50;5073174;28;20036;-79
2024/01/07 04:01:01;;;;;;;6.13;3.95;;;;;;;-142.57;100.00;56479.00;4986651;28;20341;-79
2024/01/07 04:03:26;;;;;;;4.07;2.97;;;;;;;-142.57;100.00;56477.00;4972873;28;20083;-78
2024/01/07 04:05:52;;;;;;;6.82;3.45;;;;;;;-142.57;100.00;56477.00;4981903;28;20043;-80
2024/01/07 04:08:18;;;;;;;5.32;3.40;;;;;;;-142.57;100.00;56539.63;4991137;28;20043;-80
2024/01/07 04:10:43;;;;;;;5.00;2.75;;;;;;;-142.57;100.00;56507.31;5088893;28;20024;-79
2024/01/07 04:13:09;;;;;;;4.03;2.75;;;;;;;-142.57;100.00;56519.44;5087765;28;20058;-79
2024/01/07 04:15:34;;;;;;;3.95;3.08;;;;;;;-142.57;100.00;56509.31;5020697;28;20405;-82
2024/01/07 04:18:03;;;;;;;3.63;2.65;;;;;;;-142.57;100.00;56468.91;4982517;28;20087;-79
2024/01/07 04:20:29;;;;;;;3.58;2.80;;;;;;;-142.57;100.00;56485.06;4986867;28;20045;-79
2024/01/07 04:22:55;;;;;;;5.43;3.22;;;;;;;-142.57;100.00;56497.19;4989419;28;20056;-78
2024/01/07 04:25:24;;;;;;;5.55;3.33;;;;;;;-142.57;100.00;56515.38;4975633;28;20051;-79
2024/01/07 04:27:50;;;;;;;4.88;3.17;;;;;;;-142.57;100.00;56489.13;4988359;28;20069;-79
2024/01/07 04:30:15;;;;;;;5.50;4.13;;;;;;;-142.57;100.00;56468.91;4990908;28;20443;-80
2024/01/07 04:32:41;;;;;;;5.80;4.13;;;;;;;-142.57;100.00;56507.31;4988910;28;20806;-80
2024/01/07 04:35:07;;;;;;;8.45;4.50;;;;;;;-142.57;100.00;56507.31;5000274;28;20131;-80
2024/01/07 04:37:33;;;;;;;8.05;4.25;;;;;;;-142.57;100.00;56529.53;5011792;28;21849;-79
2024/01/07 04:39:58;;;;;;;6.50;4.50;;;;;;;-142.57;100.00;56590.16;5013495;28;20040;-79
2024/01/07 04:42:24;;;;;;;8.40;5.32;;;;;;;-142.57;100.00;56559.84;5007932;28;20493;-79
2024/01/07 04:44:50;;;;;;;7.57;4.93;;;;;;;-142.57;100.00;56582.06;4989293;28;22077;-79
2024/01/07 04:47:27;;;;;;;7.63;5.30;;;;;;;-142.57;100.00;56590.16;4986202;28;20079;-80
2024/01/07 04:49:53;;;;;;;8.35;5.10;;;;;;;-142.57;100.00;56602.28;4981532;28;20467;-81
2024/01/07 04:52:19;;;;;;;9.60;5.88;;;;;;;-142.57;100.00;56569.94;4982963;28;20048;-78
2024/01/07 04:54:44;;;;;;;8.65;5.93;;;;;;;-142.57;100.00;56626.53;4982195;28;20039;-79
2024/01/07 04:57:10;;;;;;;7.65;5.50;;;;;;;-142.57;100.00;56622.50;5063729;28;20089;-80
2024/01/07 04:59:35;;;;;;;11.82;6.10;;;;;;;-142.57;100.00;56636.66;5062421;28;20418;-78
2024/01/07 05:02:01;;;;;;;8.38;5.65;;;;;;;-142.57;100.00;56606.31;4973731;28;20042;-80
2024/01/07 05:04:26;;;;;;;9.73;5.78;;;;;;;-142.57;100.00;56610.38;4982464;28;20369;-79
2024/01/07 05:06:52;;;;;;;8.90;5.95;;;;;;;-142.57;100.00;56590.16;4980003;28;20040;-81
2024/01/07 05:09:20;;;;;;;8.63;5.90;;;;;;;-142.57;100.00;56590.16;5005711;28;20074;-80
2024/01/07 05:11:46;;;;;;;8.80;6.10;;;;;;;-142.57;100.00;56658.88;5078347;28;20036;-80
2024/01/07 05:14:11;;;;;;;9.75;6.55;;;;;;;-142.57;100.00;56642.72;5083564;28;20039;-78
2024/01/07 05:16:37;;;;;;;9.48;6.25;;;;;;;-142.57;100.00;56626.53;5004150;28;20063;-81
2024/01/07 05:19:03;;;;;;;8.85;6.30;;;;;;;-142.57;100.00;56634.63;4981966;28;21611;-78
2024/01/07 05:21:29;;;;;;;9.30;6.45;;;;;;;-142.57;100.00;56634.63;4983137;28;20056;-80
2024/01/07 05:23:54;;;;;;;8.80;5.72;;;;;;;-142.57;100.00;56628.56;4977938;28;20036;-79
2024/01/07 05:26:20;;;;;;;8.60;6.38;;;;;;;-142.57;100.00;56662.91;5068123;28;20116;-77
2024/01/07 05:28:45;;;;;;;10.95;5.93;;;;;;;-142.57;100.00;56654.84;5079764;28;20401;-78
2024/01/07 05:31:18;;;;;;;10.32;6.55;;;;;;;-142.57;100.00;56675.03;4994325;28;21457;-78
2024/01/07 05:33:44;;;;;;;8.82;6.43;;;;;;;-142.57;100.00;56650.78;4984741;28;20036;-81
2024/01/07 05:36:12;;;;;;;8.18;5.75;;;;;;;-142.57;100.00;56658.88;4973409;28;21784;-79
2024/01/07 05:38:38;;;;;;;8.13;5.90;;;;;;;-142.57;100.00;56614.41;4975483;28;20075;-78
2024/01/07 05:41:04;;;;;;;10.02;6.68;;;;;;;-142.57;100.00;56602.28;5063479;28;20460;-78
2024/01/07 05:43:30;;;;;;;9.75;6.40;;;;;;;-142.57;100.00;56616.44;5071096;28;20397;-77
2024/01/07 05:45:55;;;;;;;9.90;6.32;;;;;;;-142.57;100.00;56610.38;5073308;28;20048;-79
2024/01/07 05:48:22;;;;;;;9.30;6.55;;;;;;;-142.57;100.00;56646.75;5069890;28;20664;-78
2024/01/07 05:50:48;;;;;;;7.88;5.97;;;;;;;-142.57;100.00;56626.53;4971358;28;20040;-78
2024/01/07 05:53:15;;;;;;;8.52;6.45;;;;;;;-142.57;100.00;56650.78;4984775;28;20052;-78
2024/01/07 05:55:40;;;;;;;10.88;6.97;;;;;;;-142.57;100.00;56640.69;4967192;28;20052;-78
2024/01/07 05:58:06;;;;;;;9.98;6.40;;;;;;;-142.57;100.00;56630.56;4989778;28;20461;-79
2024/01/07 06:00:31;;;;;;;9.98;6.63;;;;;;;-142.57;100.00;56656.84;5067705;28;20040;-79
2024/01/07 06:02:57;;;;;;;9.60;5.88;;;;;;;-142.57;100.00;56624.53;5076232;28;20043;-80
2024/01/07 06:05:23;;;;;;;9.02;6.50;;;;;;;-142.57;100.00;56598.25;5078169;28;20078;-79
2024/01/07 06:07:48;;;;;;;8.15;6.30;;;;;;;-142.57;100.00;56588.13;5072367;28;20032;-80
2024/01/07 06:10:14;;;;;;;9.88;6.57;;;;;;;-142.57;100.00;56590.16;5065921;28;20051;-80
2024/01/07 06:12:40;;;;;;;10.25;6.10;;;;;;;-142.57;100.00;56598.25;5031767;28;20059;-79
2024/01/07 06:15:06;;;;;;;9.85;6.35;;;;;;;-142.57;100.00;56646.75;5044795;28;20107;-79
2024/01/07 06:17:32;;;;;;;9.10;6.68;;;;;;;-142.57;100.00;56630.56;4977445;28;20097;-82
2024/01/07 06:19:58;;;;;;;11.10;6.07;;;;;;;-142.57;100.00;56614.41;4974240;28;20157;-79
2024/01/07 06:22:23;;;;;;;11.98;6.13;;;;;;;-142.57;100.00;56598.25;4975104;28;20036;-80
2024/01/07 06:24:49;;;;;;;8.98;6.40;;;;;;;-142.57;100.00;56614.41;5017971;28;20342;-78
2024/01/07 06:27:14;;;;;;;9.18;6.25;;;;;;;-142.57;100.00;56626.53;5062535;28;20044;-77
2024/01/07 06:29:40;;;;;;;9.20;6.07;;;;;;;-142.57;100.00;56628.56;5070391;28;20033;-80
2024/01/07 06:32:05;;;;;;;8.57;5.55;;;;;;;-142.57;100.00;56602.28;5064494;28;20073;-78
2024/01/07 06:34:32;;;;;;;8.32;5.13;;;;;;;-142.57;100.00;56618.44;5045328;28;20051;-81
2024/01/07 06:36:58;;;;;;;10.05;6.30;;;;;;;-142.57;100.00;56592.19;4982408;28;20113;-81
2024/01/07 06:39:30;;;;;;;10.25;6.13;;;;;;;-142.57;100.00;56622.50;4979472;28;21865;-78
2024/01/07 06:41:55;;;;;;;8.15;5.65;;;;;;;-142.57;100.00;56626.53;4986182;28;20464;-78
2024/01/07 06:44:21;;;;;;;7.63;5.53;;;;;;;-142.57;100.00;56622.50;5020455;28;20100;-82
2024/01/07 06:46:46;;;;;;;10.75;6.13;;;;;;;-142.57;100.00;56622.50;5084372;28;20060;-79
2024/01/07 06:49:12;;;;;;;13.32;6.07;;;;;;;-142.57;100.00;56614.41;5036307;28;20737;-78
2024/01/07 06:51:38;;;;;;;7.03;5.18;;;;;;;-142.57;100.00;56650.78;4991157;28;20052;-79
2024/01/07 06:54:09;;;;;;;6.93;5.03;;;;;;;-142.57;100.00;56666.97;4987863;28;21368;-79
2024/01/07 06:56:35;;;;;;;8.02;5.88;;;;;;;-142.57;100.00;56693.22;4981634;28;20132;-82
2024/01/07 06:59:04;;;;;;;10.57;7.20;;;;;;;-142.57;100.00;56618.44;4980322;28;20091;-79
2024/01/07 07:01:29;;;;;;;9.98;6.93;;;;;;;-142.57;100.00;56624.53;4980000;28;20123;-79
2024/01/07 07:03:55;;;;;;;10.63;6.90;;;;;;;-142.57;100.00;56634.63;4976482;28;20515;-79
2024/01/07 07:06:20;;;;;;;9.38;6.47;;;;;;;-142.57;100.00;56646.75;4976823;28;20066;-82
2024/01/07 07:08:46;;;;;;;9.18;6.63;;;;;;;-142.57;100.00;56640.69;4971237;28;20228;-81
2024/01/07 07:11:12;;;;;;;8.68;5.75;;;;;;;-142.57;100.00;56640.69;4980333;28;20114;-81
2024/01/07 07:13:38;;;;;;;9.57;5.85;;;;;;;-142.57;100.00;56642.72;4976890;28;20043;-81
2024/01/07 07:16:04;;;;;;;9.73;5.80;;;;;;;-142.57;100.00;56660.91;4979777;28;20040;-79
2024/01/07 07:18:29;;;;;;;9.85;6.00;;;;;;;-142.57;100.00;56664.94;5019474;28;20032;-79
2024/01/07 07:20:55;;;;;;;8.55;5.70;;;;;;;-142.57;100.00;56642.72;5075673;28;20481;-82
2024/01/07 07:23:20;;;;;;;8.20;5.68;;;;;;;-142.57;100.00;56634.63;5076240;28;20382;-82
2024/01/07 07:25:46;;;;;;;9.43;5.65;;;;;;;-142.57;100.00;56662.91;5064461;28;20193;-81
2024/01/07 07:28:11;;;;;;;9.10;6.38;;;;;;;-142.57;100.00;56666.97;5072053;28;20045;-82
2024/01/07 07:30:37;;;;;;;12.60;7.10;;;;;;;-142.57;100.00;56622.50;5013896;28;20062;-81
2024/01/07 07:33:02;;;;;;;11.85;6.72;;;;;;;-142.57;100.00;56658.88;4986474;28;20339;-84
2024/01/07 07:35:28;;;;;;;9.35;6.65;;;;;;;-142.57;100.00;56620.47;4993008;28;20029;-83
2024/01/07 07:37:55;;;;;;;11.43;7.28;;;;;;;-142.57;100.00;56618.44;4971871;28;20040;-84
2024/01/07 07:40:20;;;;;;;12.02;7.13;;;;;;;-142.57;100.00;56614.41;5032218;28;20036;-84
2024/01/07 07:42:46;;;;;;;9.63;6.25;;;;;;;-142.57;100.00;56628.56;5044298;28;20024;-80
2024/01/07 07:45:12;;;;;;;8.75;5.53;;;;;;;-142.57;100.00;56640.69;5065486;28;20735;-84
2024/01/07 07:47:41;;;;;;;8.52;6.05;;;;;;;-142.57;100.00;56614.41;4970868;28;20534;-81
2024/01/07 07:50:07;;;;;;;7.63;5.20;;;;;;;-142.57;100.00;56640.69;4972232;28;20040;-84
2024/01/07 07:52:33;;;;;;;8.55;5.07;;;;;;;-142.57;100.00;56594.19;4975367;28;20043;-81
2024/01/07 07:54:58;;;;;;;8.68;4.55;;;;;;;-142.57;100.00;56557.81;4970050;28;20199;-85
2024/01/07 07:57:25;;;;;;;6.47;4.38;;;;;;;-142.57;100.00;56586.13;4972331;28;20057;-81
2024/01/07 07:59:51;;;;;;;6.30;4.18;;;;;;;-142.57;100.00;56608.34;4972080;28;20068;-78
2024/01/07 08:02:16;;;;;;;6.07;4.45;;;;;;;-142.57;100.00;56626.53;4965649;28;21486;-79
2024/01/07 08:04:42;;;;;;;7.32;4.47;;;;;;;-142.57;100.00;56666.97;4975662;28;20614;-81
2024/01/07 08:07:08;;;;;;;5.90;4.10;;;;;;;-142.57;100.00;56699.28;4976950;28;20032;-81
2024/01/07 08:09:36;;;;;;;6.28;4.43;;;;;;;-142.57;100.00;56699.28;4987500;28;20064;-80
2024/01/07 08:12:03;;;;;;;5.22;3.58;;;;;;;-142.57;100.00;56654.84;5055150;28;20048;-81
2024/01/07 08:14:28;;;;;;;5.50;3.95;;;;;;;-142.57;100.00;56679.09;5088102;28;20438;-80
2024/01/07 08:16:54;;;;;;;5.20;3.67;;;;;;;-142.57;100.00;56642.72;5066275;28;20032;-82
2024/01/07 08:19:20;;;;;;;6.30;3.67;;;;;;;-142.57;100.00;56638.66;4980519;28;21420;-79
2024/01/07 08:21:46;;;;;;;6.32;3.97;;;;;;;-142.57;100.00;56683.13;4984271;28;20792;-82
2024/01/07 08:24:11;;;;;;;5.57;3.70;;;;;;;-142.57;100.00;56646.75;4969501;28;20382;-83
2024/01/07 08:26:37;;;;;;;6.70;4.43;;;;;;;-142.57;100.00;56620.47;4991977;28;20035;-81
2024/01/07 08:29:03;;;;;;;7.75;4.00;;;;;;;-142.57;100.00;56642.72;5088204;28;20032;-81
2024/01/07 08:31:29;;;;;;;6.40;4.00;;;;;;;-142.57;100.00;56703.34;5008849;28;20041;-82
2024/01/07 08:33:54;;;;;;;7.57;4.60;;;;;;;-142.57;100.00;56658.88;4959027;28;20171;-84
2024/01/07 08:36:20;;;;;;;6.57;4.57;;;;;;;-142.57;100.00;56666.97;4985711;28;20401;-84
2024/01/07 08:38:46;;;;;;;8.80;4.45;;;;;;;-142.57;100.00;56679.09;4988635;28;20409;-84
2024/01/07 08:41:11;;;;;;;8.52;5.05;;;;;;;-142.57;100.00;56687.16;5070673;28;20036;-86
2024/01/07 08:43:38;;;;;;;9.52;5.80;;;;;;;-142.57;100.00;56689.19;5079893;28;20115;-87
2024/01/07 08:46:04;;;;;;;7.50;4.55;;;;;;;-142.57;100.00;56725.56;5072981;28;20043;-84
2024/01/07 08:48:30;;;;;;;8.73;5.80;;;;;;;-142.57;100.00;56699.28;4977125;28;20045;-83
2024/01/07 08:50:55;;;;;;;6.03;4.20;;;;;;;-142.57;100.00;56723.53;4995352;28;20112;-83
2024/01/07 08:53:22;;;;;;;6.07;4.00;;;;;;;-142.57;100.00;56751.84;5000309;28;20028;-82
2024/01/07 08:55:48;;;;;;;6.35;4.35;;;;;;;-142.57;100.00;56707.38;5008577;28;20021;-81
2024/01/07 08:58:17;;;;;;;4.63;3.50;;;;;;;-142.57;100.00;56751.84;5065111;28;20020;-83
2024/01/07 09:00:43;;;;;;;7.20;3.92;;;;;;;-142.57;100.00;56673.03;5078124;28;20039;-82
2024/01/07 09:03:09;;;;;;;6.10;3.65;;;;;;;-142.57;100.00;56705.34;5007245;28;20102;-79
2024/01/07 09:05:35;;;;;;;4.63;3.10;;;;;;;-142.57;100.00;56733.66;4990640;28;20151;-79
2024/01/07 09:08:00;;;;;;;6.97;3.22;;;;;;;-142.57;100.00;56741.75;4991574;28;20158;-83
2024/01/07 09:10:26;;;;;;;5.25;3.38;;;;;;;-142.57;100.00;56776.09;5010754;28;20045;-80
2024/01/07 09:12:55;;;;;;;5.30;3.55;;;;;;;-142.57;100.00;56727.59;5078551;28;20054;-81
2024/01/07 09:15:21;;;;;;;6.88;3.78;;;;;;;-142.57;100.00;56747.81;5055382;28;20689;-79
2024/01/07 09:17:48;;;;;;;6.05;3.30;;;;;;;-142.57;100.00;56749.81;4943743;28;20032;-85
2024/01/07 09:20:13;;;;;;;10.55;3.85;;;;;;;-142.57;100.00;56731.63;4965456;28;20036;-85
2024/01/07 09:22:40;;;;;;;6.20;3.60;;;;;;;-142.57;100.00;56770.03;4965969;28;20046;-86
2024/01/07 09:25:06;;;;;;;4.15;2.92;;;;;;;-142.57;100.00;56800.34;4984947;28;20036;-84
2024/01/07 09:27:33;;;;;;;3.97;2.90;;;;;;;-142.57;100.00;56776.09;5044513;28;20059;-84
2024/01/07 09:29:59;;;;;;;5.22;3.30;;;;;;;-142.57;100.00;56751.84;4997132;28;20036;-81
2024/01/07 09:32:25;;;;;;;6.50;3.25;;;;;;;-142.57;100.00;56763.97;4982189;28;20386;-90
2024/01/07 09:34:53;;;;;;;5.13;3.40;;;;;;;-142.57;100.00;56780.13;4973919;28;20047;-88
2024/01/07 09:37:19;;;;;;;5.45;3.42;;;;;;;-142.57;100.00;56703.34;4981131;28;22253;-84
2024/01/07 09:39:46;;;;;;;6.45;3.17;;;;;;;-142.57;100.00;56751.84;4980578;28;21245;-80
2024/01/07 09:42:16;;;;;;;7.38;3.25;;;;;;;-142.57;100.00;56761.94;4969995;28;20040;-83
2024/01/07 09:44:42;;;;;;;5.45;3.05;;;;;;;-142.57;100.00;56731.63;4976004;28;20032;-89
2024/01/07 09:47:12;;;;;;;5.25;2.92;;;;;;;-142.57;100.00;56763.97;5027489;28;20117;-85
2024/01/07 09:49:42;;;;;;;3.17;2.40;;;;;;;-142.57;100.00;56812.47;5047911;28;20044;-82
2024/01/07 09:52:10;;;;;;;4.45;2.67;;;;;;;-142.57;100.00;56800.34;5088448;28;20392;-85
2024/01/07 09:54:39;;;;;;;25.23;8.80;;;;;;;-142.57;100.00;56806.41;5075997;28;20081;-84
2024/01/07 09:57:07;;;;;;;4.53;2.90;;;;;;;-142.57;100.00;56739.72;5064778;28;20068;-84
2024/01/07 09:59:34;;;;;;;7.35;3.15;;;;;;;-142.57;100.00;56788.22;4994945;28;20082;-80
2024/01/07 10:02:00;;;;;;;4.88;3.10;;;;;;;-142.57;100.00;56763.97;5014208;28;20036;-86
2024/01/07 10:04:27;;;;;;;4.35;2.35;;;;;;;-142.57;100.00;56788.22;4989595;28;20055;-80
2024/01/07 10:06:54;;;;;;;2.28;1.80;;;;;;;-142.57;100.00;56719.50;4978034;28;20043;-83
2024/01/07 10:09:23;;;;;;;4.28;2.25;;;;;;;-142.57;100.00;56763.97;4968293;28;20044;-83
2024/01/07 10:11:51;;;;;;;2.95;2.10;;;;;;;-142.57;100.00;56747.81;5041815;28;20032;-86
2024/01/07 10:14:17;;;;;;;4.45;2.20;;;;;;;-142.57;100.00;56784.19;5007851;28;20466;-85
2024/01/07 10:16:43;;;;;;;1.60;1.45;;;;;;;-142.57;100.00;56780.13;5045992;28;20520;-86
2024/01/07 10:19:08;;;;;;;3.10;2.08;;;;;;;-142.57;100.00;56800.34;5064110;28;20032;-84
2024/01/07 10:21:34;;;;;;;3.47;2.25;;;;;;;-142.57;100.00;56778.13;5044269;28;20029;-85
2024/01/07 10:24:13;;;;;;;5.53;1.67;;;;;;;-142.57;100.00;56695.25;5047054;28;20122;-82
2024/01/07 10:26:39;;;;;;;2.45;1.73;;;;;;;-142.57;100.00;56749.81;5027284;28;20097;-85
2024/01/07 10:29:06;;;;;;;2.78;2.05;;;;;;;-142.57;100.00;56810.44;4965439;28;20050;-82
2024/01/07 10:31:32;;;;;;;4.10;2.10;;;;;;;-142.57;100.00;56774.06;5007518;28;20036;-84
2024/01/07 10:33:58;;;;;;;3.60;2.30;;;;;;;-142.57;100.00;56776.09;4994476;28;20123;-84
2024/01/07 10:36:24;;;;;;;3.85;1.80;;;;;;;-142.57;100.00;56755.88;4958280;28;20796;-83
2024/01/07 10:38:50;;;;;;;3.58;1.92;;;;;;;-142.57;100.00;56798.31;4969932;28;20546;-83
2024/01/07 10:41:19;;;;;;;1.77;1.48;;;;;;;-142.57;100.00;56759.94;4970098;28;20040;-84
2024/01/07 10:43:48;;;;;;;2.38;1.80;;;;;;;-142.57;100.00;56747.81;4975634;28;20136;-83
2024/01/07 10:46:15;;;;;;;3.55;1.65;;;;;;;-142.57;100.00;56749.81;4974110;28;20120;-83
2024/01/07 10:49:19;;;;;;;1.98;1.67;;;;;;;-142.57;100.00;56780.13;4971909;28;21590;-83
2024/01/07 10:51:49;;;;;;;2.58;1.58;;;;;;;-142.57;100.00;56800.34;4974335;28;20028;-85
2024/01/07 10:54:18;;;;;;;3.58;1.50;;;;;;;-142.57;100.00;56780.13;5001557;28;20036;-82
2024/01/07 10:56:48;;;;;;;2.47;1.40;;;;;;;-142.57;100.00;56739.72;5017343;28;21404;-81
2024/01/07 10:59:15;;;;;;;1.95;1.45;;;;;;;-142.57;100.00;56763.97;4986496;28;20040;-82
2024/01/07 11:01:40;;;;;;;1.70;1.60;;;;;;;-142.57;100.00;56822.59;4974691;28;20043;-84